KCSQ/CSQ METAR and TAF weather

Enter ICAO airport designator
Station Type Date Time Source
KCSQ METAR 2018/07/21 22:55 UTC NOAA

KCSQ 212255Z AUTO 35009KT 10SM FEW045 28/17 A3002 RMK AO2


Station Type Date Time Source
KCSQ Decoded METAR 2018/07/21 22:55 UTC NOAA

Creston, IA, United States (KCSQ) 41-01N 094-22W
Jul 21, 2018 - 06:55 PM EDT / 2018.07.21 2255 UTC
Wind: from the N (350 degrees) at 10 MPH (9 KT):0
Visibility: 10 mile(s):0
Sky conditions: mostly clear
Temperature: 82 F (28 C)
Dew Point: 62 F (17 C)
Relative Humidity: 51%
Pressure (altimeter): 30.02 in. Hg (1016 hPa)
ob: KCSQ 212255Z AUTO 35009KT 10SM FEW045 28/17 A3002 RMK AO2
cycle: 23

Station Type Date Time Source
KCSQ TAF UTC NOAA

Error!


Example: see airport list